sensor_id;sensor_type;location;lat;lon;timestamp;temperature;humidity
6333;DHT22;3199;49.102;8.856;2023-11-21T00:02:20;8.60;99.90
6333;DHT22;3199;49.102;8.856;2023-11-21T00:04:45;8.60;99.90
6333;DHT22;3199;49.102;8.856;2023-11-21T00:07:11;8.60;99.90
6333;DHT22;3199;49.102;8.856;2023-11-21T00:09:37;8.60;99.90
6333;DHT22;3199;49.102;8.856;2023-11-21T00:12:02;8.70;99.90
6333;DHT22;3199;49.102;8.856;2023-11-21T00:14:28;8.70;99.90
6333;DHT22;3199;49.102;8.856;2023-11-21T00:16:54;8.70;99.90
6333;DHT22;3199;49.102;8.856;2023-11-21T00:19:20;8.70;99.90
6333;DHT22;3199;49.102;8.856;2023-11-21T00:21:45;8.70;99.90
6333;DHT22;3199;49.102;8.856;2023-11-21T00:24:12;8.80;99.90
6333;DHT22;3199;49.102;8.856;2023-11-21T00:26:39;8.80;99.90
6333;DHT22;3199;49.102;8.856;2023-11-21T00:29:05;8.80;99.90
6333;DHT22;3199;49.102;8.856;2023-11-21T00:31:34;8.90;99.90
6333;DHT22;3199;49.102;8.856;2023-11-21T00:34:02;8.90;99.90
6333;DHT22;3199;49.102;8.856;2023-11-21T00:36:29;8.90;99.90
6333;DHT22;3199;49.102;8.856;2023-11-21T00:38:54;8.90;99.90
6333;DHT22;3199;49.102;8.856;2023-11-21T00:41:21;8.90;99.90
6333;DHT22;3199;49.102;8.856;2023-11-21T00:43:46;8.90;99.90
6333;DHT22;3199;49.102;8.856;2023-11-21T00:46:12;8.90;99.90
6333;DHT22;3199;49.102;8.856;2023-11-21T00:48:37;8.80;99.90
6333;DHT22;3199;49.102;8.856;2023-11-21T00:51:03;8.80;99.90
6333;DHT22;3199;49.102;8.856;2023-11-21T00:53:28;8.80;99.90
6333;DHT22;3199;49.102;8.856;2023-11-21T00:55:54;8.80;99.90
6333;DHT22;3199;49.102;8.856;2023-11-21T00:58:24;8.80;99.90
6333;DHT22;3199;49.102;8.856;2023-11-21T01:00:49;8.80;99.90
6333;DHT22;3199;49.102;8.856;2023-11-21T01:03:15;8.80;99.90
6333;DHT22;3199;49.102;8.856;2023-11-21T01:05:41;8.80;99.90
6333;DHT22;3199;49.102;8.856;2023-11-21T01:08:06;8.80;99.90
6333;DHT22;3199;49.102;8.856;2023-11-21T01:10:32;8.80;99.90
6333;DHT22;3199;49.102;8.856;2023-11-21T01:12:59;8.90;99.90
6333;DHT22;3199;49.102;8.856;2023-11-21T01:15:25;8.90;99.90
6333;DHT22;3199;49.102;8.856;2023-11-21T01:17:51;8.80;99.90
6333;DHT22;3199;49.102;8.856;2023-11-21T01:20:17;8.90;99.90
6333;DHT22;3199;49.102;8.856;2023-11-21T01:22:43;8.90;99.90
6333;DHT22;3199;49.102;8.856;2023-11-21T01:25:08;8.90;99.90
6333;DHT22;3199;49.102;8.856;2023-11-21T01:27:34;8.90;99.90
6333;DHT22;3199;49.102;8.856;2023-11-21T01:30:02;8.90;99.90
6333;DHT22;3199;49.102;8.856;2023-11-21T01:32:27;8.90;99.90
6333;DHT22;3199;49.102;8.856;2023-11-21T01:34:54;9.00;99.90
6333;DHT22;3199;49.102;8.856;2023-11-21T01:37:21;8.90;99.90
6333;DHT22;3199;49.102;8.856;2023-11-21T01:39:47;8.90;99.90
6333;DHT22;3199;49.102;8.856;2023-11-21T01:42:13;9.00;99.90
6333;DHT22;3199;49.102;8.856;2023-11-21T01:44:39;9.00;99.90
6333;DHT22;3199;49.102;8.856;2023-11-21T01:47:06;9.00;99.90
6333;DHT22;3199;49.102;8.856;2023-11-21T01:49:32;9.00;99.90
6333;DHT22;3199;49.102;8.856;2023-11-21T01:51:59;9.00;99.90
6333;DHT22;3199;49.102;8.856;2023-11-21T01:54:25;8.90;99.90
6333;DHT22;3199;49.102;8.856;2023-11-21T01:56:51;8.90;99.90
6333;DHT22;3199;49.102;8.856;2023-11-21T01:59:20;8.90;99.90
6333;DHT22;3199;49.102;8.856;2023-11-21T02:01:48;8.90;99.90
6333;DHT22;3199;49.102;8.856;2023-11-21T02:04:15;8.90;99.90
6333;DHT22;3199;49.102;8.856;2023-11-21T02:06:41;8.90;99.90
6333;DHT22;3199;49.102;8.856;2023-11-21T02:09:07;8.90;99.90
6333;DHT22;3199;49.102;8.856;2023-11-21T02:11:34;8.90;99.90
6333;DHT22;3199;49.102;8.856;2023-11-21T02:14:00;8.90;99.90
6333;DHT22;3199;49.102;8.856;2023-11-21T02:16:26;8.90;99.90
6333;DHT22;3199;49.102;8.856;2023-11-21T02:18:52;8.90;99.90
6333;DHT22;3199;49.102;8.856;2023-11-21T02:21:18;8.80;99.90
6333;DHT22;3199;49.102;8.856;2023-11-21T02:23:45;8.80;99.90
6333;DHT22;3199;49.102;8.856;2023-11-21T02:26:12;8.80;99.90
6333;DHT22;3199;49.102;8.856;2023-11-21T02:28:39;8.80;99.90
6333;DHT22;3199;49.102;8.856;2023-11-21T02:31:05;8.80;99.90
6333;DHT22;3199;49.102;8.856;2023-11-21T02:33:31;8.80;99.90
6333;DHT22;3199;49.102;8.856;2023-11-21T02:36:01;8.80;99.90
6333;DHT22;3199;49.102;8.856;2023-11-21T02:38:26;8.80;99.90
6333;DHT22;3199;49.102;8.856;2023-11-21T02:40:52;8.80;99.90
6333;DHT22;3199;49.102;8.856;2023-11-21T02:43:17;8.80;99.90
6333;DHT22;3199;49.102;8.856;2023-11-21T02:45:43;8.80;99.90
6333;DHT22;3199;49.102;8.856;2023-11-21T02:48:09;8.80;99.90
6333;DHT22;3199;49.102;8.856;2023-11-21T02:50:34;8.80;99.90
6333;DHT22;3199;49.102;8.856;2023-11-21T02:53:00;8.80;99.90
6333;DHT22;3199;49.102;8.856;2023-11-21T02:55:27;8.80;99.90
6333;DHT22;3199;49.102;8.856;2023-11-21T02:57:53;8.80;99.90
6333;DHT22;3199;49.102;8.856;2023-11-21T03:00:18;8.80;99.90
6333;DHT22;3199;49.102;8.856;2023-11-21T03:02:45;8.80;99.90
6333;DHT22;3199;49.102;8.856;2023-11-21T03:05:13;8.80;99.90
6333;DHT22;3199;49.102;8.856;2023-11-21T03:07:39;8.80;99.90
6333;DHT22;3199;49.102;8.856;2023-11-21T03:10:06;8.70;99.90
6333;DHT22;3199;49.102;8.856;2023-11-21T03:12:34;8.70;99.90
6333;DHT22;3199;49.102;8.856;2023-11-21T03:14:59;8.70;99.90
6333;DHT22;3199;49.102;8.856;2023-11-21T03:17:27;8.70;99.90
6333;DHT22;3199;49.102;8.856;2023-11-21T03:19:52;8.70;99.90
6333;DHT22;3199;49.102;8.856;2023-11-21T03:22:18;8.70;99.90
6333;DHT22;3199;49.102;8.856;2023-11-21T03:24:44;8.80;99.90
6333;DHT22;3199;49.102;8.856;2023-11-21T03:27:10;8.80;99.90
6333;DHT22;3199;49.102;8.856;2023-11-21T03:29:35;8.80;99.90
6333;DHT22;3199;49.102;8.856;2023-11-21T03:32:01;8.80;99.90
6333;DHT22;3199;49.102;8.856;2023-11-21T03:34:27;8.80;99.90
6333;DHT22;3199;49.102;8.856;2023-11-21T03:36:53;8.80;99.90
6333;DHT22;3199;49.102;8.856;2023-11-21T03:39:22;8.70;99.90
6333;DHT22;3199;49.102;8.856;2023-11-21T03:41:48;8.80;99.90
6333;DHT22;3199;49.102;8.856;2023-11-21T03:44:14;8.80;99.90
6333;DHT22;3199;49.102;8.856;2023-11-21T03:46:40;8.80;99.90
6333;DHT22;3199;49.102;8.856;2023-11-21T03:49:06;8.80;99.90
6333;DHT22;3199;49.102;8.856;2023-11-21T03:51:31;8.80;99.90
6333;DHT22;3199;49.102;8.856;2023-11-21T03:53:57;8.80;99.90
6333;DHT22;3199;49.102;8.856;2023-11-21T03:56:22;8.80;99.90
6333;DHT22;3199;49.102;8.856;2023-11-21T03:58:48;8.80;99.90
6333;DHT22;3199;49.102;8.856;2023-11-21T04:01:24;8.80;99.90
6333;DHT22;3199;49.102;8.856;2023-11-21T04:03:51;8.70;99.90
6333;DHT22;3199;49.102;8.856;2023-11-21T04:06:17;8.70;99.90
6333;DHT22;3199;49.102;8.856;2023-11-21T04:08:44;8.70;99.90
6333;DHT22;3199;49.102;8.856;2023-11-21T04:11:10;8.70;99.90
6333;DHT22;3199;49.102;8.856;2023-11-21T04:13:39;8.80;99.90
6333;DHT22;3199;49.102;8.856;2023-11-21T04:16:06;8.80;99.90
6333;DHT22;3199;49.102;8.856;2023-11-21T04:18:33;8.80;99.90
6333;DHT22;3199;49.102;8.856;2023-11-21T04:20:59;8.80;99.90
6333;DHT22;3199;49.102;8.856;2023-11-21T04:23:24;8.80;99.90
6333;DHT22;3199;49.102;8.856;2023-11-21T04:25:50;8.80;99.90
6333;DHT22;3199;49.102;8.856;2023-11-21T04:28:16;8.80;99.90
6333;DHT22;3199;49.102;8.856;2023-11-21T04:30:41;8.80;99.90
6333;DHT22;3199;49.102;8.856;2023-11-21T04:33:07;8.80;99.90
6333;DHT22;3199;49.102;8.856;2023-11-21T04:35:33;8.80;99.90
6333;DHT22;3199;49.102;8.856;2023-11-21T04:37:58;8.70;99.90
6333;DHT22;3199;49.102;8.856;2023-11-21T04:40:24;8.70;99.90
6333;DHT22;3199;49.102;8.856;2023-11-21T04:42:49;8.70;99.90
6333;DHT22;3199;49.102;8.856;2023-11-21T04:45:15;8.70;99.90
6333;DHT22;3199;49.102;8.856;2023-11-21T04:47:41;8.70;99.90
6333;DHT22;3199;49.102;8.856;2023-11-21T04:50:06;8.70;99.90
6333;DHT22;3199;49.102;8.856;2023-11-21T04:52:32;8.80;99.90
6333;DHT22;3199;49.102;8.856;2023-11-21T04:55:01;8.80;99.90
6333;DHT22;3199;49.102;8.856;2023-11-21T04:57:27;8.70;99.90
6333;DHT22;3199;49.102;8.856;2023-11-21T04:59:54;8.80;99.90
6333;DHT22;3199;49.102;8.856;2023-11-21T05:02:19;8.80;99.90
6333;DHT22;3199;49.102;8.856;2023-11-21T05:04:46;8.80;99.90
6333;DHT22;3199;49.102;8.856;2023-11-21T05:07:12;8.80;99.90
6333;DHT22;3199;49.102;8.856;2023-11-21T05:09:42;8.90;99.90
6333;DHT22;3199;49.102;8.856;2023-11-21T05:12:09;8.90;99.90
6333;DHT22;3199;49.102;8.856;2023-11-21T05:14:35;8.90;99.90
6333;DHT22;3199;49.102;8.856;2023-11-21T05:17:00;8.90;99.90
6333;DHT22;3199;49.102;8.856;2023-11-21T05:19:26;8.80;99.90
6333;DHT22;3199;49.102;8.856;2023-11-21T05:21:52;8.90;99.90
6333;DHT22;3199;49.102;8.856;2023-11-21T05:24:17;8.80;99.90
6333;DHT22;3199;49.102;8.856;2023-11-21T05:26:43;8.80;99.90
6333;DHT22;3199;49.102;8.856;2023-11-21T05:29:08;8.80;99.90
6333;DHT22;3199;49.102;8.856;2023-11-21T05:31:36;8.80;99.90
6333;DHT22;3199;49.102;8.856;2023-11-21T05:34:02;8.80;99.90
6333;DHT22;3199;49.102;8.856;2023-11-21T05:36:28;8.70;99.90
6333;DHT22;3199;49.102;8.856;2023-11-21T05:38:54;8.80;99.90
6333;DHT22;3199;49.102;8.856;2023-11-21T05:41:19;8.70;99.90
6333;DHT22;3199;49.102;8.856;2023-11-21T05:43:45;8.70;99.90
6333;DHT22;3199;49.102;8.856;2023-11-21T05:46:10;8.70;99.90
6333;DHT22;3199;49.102;8.856;2023-11-21T05:48:36;8.60;99.90
6333;DHT22;3199;49.102;8.856;2023-11-21T05:51:06;8.60;99.90
6333;DHT22;3199;49.102;8.856;2023-11-21T05:53:32;8.60;99.90
6333;DHT22;3199;49.102;8.856;2023-11-21T05:55:57;8.60;99.90
6333;DHT22;3199;49.102;8.856;2023-11-21T05:58:23;8.60;99.90
6333;DHT22;3199;49.102;8.856;2023-11-21T06:00:49;8.60;99.90
6333;DHT22;3199;49.102;8.856;2023-11-21T06:03:14;8.60;99.90
6333;DHT22;3199;49.102;8.856;2023-11-21T06:05:40;8.60;99.90
6333;DHT22;3199;49.102;8.856;2023-11-21T06:08:05;8.60;99.90
6333;DHT22;3199;49.102;8.856;2023-11-21T06:10:32;8.60;99.90
6333;DHT22;3199;49.102;8.856;2023-11-21T06:12:58;8.60;99.90
6333;DHT22;3199;49.102;8.856;2023-11-21T06:15:24;8.60;99.90
6333;DHT22;3199;49.102;8.856;2023-11-21T06:17:50;8.60;99.90
6333;DHT22;3199;49.102;8.856;2023-11-21T06:20:18;8.60;99.90
6333;DHT22;3199;49.102;8.856;2023-11-21T06:22:45;8.60;99.90
6333;DHT22;3199;49.102;8.856;2023-11-21T06:25:12;8.60;99.90
6333;DHT22;3199;49.102;8.856;2023-11-21T06:27:43;8.60;99.90
6333;DHT22;3199;49.102;8.856;2023-11-21T06:30:10;8.70;99.90
6333;DHT22;3199;49.102;8.856;2023-11-21T06:32:37;8.70;99.90
6333;DHT22;3199;49.102;8.856;2023-11-21T06:35:04;8.70;99.90
6333;DHT22;3199;49.102;8.856;2023-11-21T06:37:30;8.70;99.90
6333;DHT22;3199;49.102;8.856;2023-11-21T06:39:57;8.70;99.90
6333;DHT22;3199;49.102;8.856;2023-11-21T06:42:24;8.70;99.90
6333;DHT22;3199;49.102;8.856;2023-11-21T06:44:49;8.70;99.90
6333;DHT22;3199;49.102;8.856;2023-11-21T06:47:19;8.80;99.90
6333;DHT22;3199;49.102;8.856;2023-11-21T06:49:50;8.80;99.90
6333;DHT22;3199;49.102;8.856;2023-11-21T06:52:15;8.80;99.90
6333;DHT22;3199;49.102;8.856;2023-11-21T06:54:41;8.80;99.90
6333;DHT22;3199;49.102;8.856;2023-11-21T06:57:07;8.90;99.90
6333;DHT22;3199;49.102;8.856;2023-11-21T06:59:33;8.80;99.90
6333;DHT22;3199;49.102;8.856;2023-11-21T07:01:58;8.80;99.90
6333;DHT22;3199;49.102;8.856;2023-11-21T07:04:24;8.80;99.90
6333;DHT22;3199;49.102;8.856;2023-11-21T07:06:51;8.80;99.90
6333;DHT22;3199;49.102;8.856;2023-11-21T07:09:17;8.80;99.90
6333;DHT22;3199;49.102;8.856;2023-11-21T07:11:42;8.80;99.90
6333;DHT22;3199;49.102;8.856;2023-11-21T07:14:08;8.80;99.90
6333;DHT22;3199;49.102;8.856;2023-11-21T07:16:37;8.80;99.90
6333;DHT22;3199;49.102;8.856;2023-11-21T07:19:06;8.80;99.90
6333;DHT22;3199;49.102;8.856;2023-11-21T07:21:32;8.70;99.90
6333;DHT22;3199;49.102;8.856;2023-11-21T07:24:02;8.70;99.90
6333;DHT22;3199;49.102;8.856;2023-11-21T07:26:28;8.70;99.90
6333;DHT22;3199;49.102;8.856;2023-11-21T07:28:54;8.70;99.90
6333;DHT22;3199;49.102;8.856;2023-11-21T07:31:19;8.70;99.90
6333;DHT22;3199;49.102;8.856;2023-11-21T07:33:48;8.70;99.90
6333;DHT22;3199;49.102;8.856;2023-11-21T07:36:14;8.70;99.90
6333;DHT22;3199;49.102;8.856;2023-11-21T07:38:42;8.70;99.90
6333;DHT22;3199;49.102;8.856;2023-11-21T07:41:08;8.70;99.90
6333;DHT22;3199;49.102;8.856;2023-11-21T07:43:37;8.70;99.90
6333;DHT22;3199;49.102;8.856;2023-11-21T07:46:03;8.70;99.90
6333;DHT22;3199;49.102;8.856;2023-11-21T07:48:30;8.80;99.90
6333;DHT22;3199;49.102;8.856;2023-11-21T07:50:57;8.90;99.90
6333;DHT22;3199;49.102;8.856;2023-11-21T07:53:25;8.90;99.90
6333;DHT22;3199;49.102;8.856;2023-11-21T07:55:55;8.90;99.90
6333;DHT22;3199;49.102;8.856;2023-11-21T07:58:21;9.00;99.90
6333;DHT22;3199;49.102;8.856;2023-11-21T08:00:46;9.10;99.90
6333;DHT22;3199;49.102;8.856;2023-11-21T08:03:16;9.10;99.90
6333;DHT22;3199;49.102;8.856;2023-11-21T08:05:42;9.10;99.90
6333;DHT22;3199;49.102;8.856;2023-11-21T08:08:08;9.20;99.90
6333;DHT22;3199;49.102;8.856;2023-11-21T08:10:34;9.20;99.90
6333;DHT22;3199;49.102;8.856;2023-11-21T08:13:01;9.20;99.90
6333;DHT22;3199;49.102;8.856;2023-11-21T08:15:27;9.30;99.90
6333;DHT22;3199;49.102;8.856;2023-11-21T08:17:52;9.30;99.90
6333;DHT22;3199;49.102;8.856;2023-11-21T08:20:18;9.40;99.90
6333;DHT22;3199;49.102;8.856;2023-11-21T08:22:46;9.50;99.90
6333;DHT22;3199;49.102;8.856;2023-11-21T08:25:13;9.50;99.90
6333;DHT22;3199;49.102;8.856;2023-11-21T08:27:40;9.60;99.90
6333;DHT22;3199;49.102;8.856;2023-11-21T08:30:06;9.60;99.90
6333;DHT22;3199;49.102;8.856;2023-11-21T08:32:32;9.60;99.90
6333;DHT22;3199;49.102;8.856;2023-11-21T08:34:58;9.70;99.90
6333;DHT22;3199;49.102;8.856;2023-11-21T08:37:24;9.80;99.90
6333;DHT22;3199;49.102;8.856;2023-11-21T08:39:52;9.90;99.90
6333;DHT22;3199;49.102;8.856;2023-11-21T08:42:18;9.90;99.90
6333;DHT22;3199;49.102;8.856;2023-11-21T08:44:44;10.00;99.90
6333;DHT22;3199;49.102;8.856;2023-11-21T08:47:10;10.00;99.90
6333;DHT22;3199;49.102;8.856;2023-11-21T08:49:35;10.00;99.90
6333;DHT22;3199;49.102;8.856;2023-11-21T08:52:01;10.00;99.90
6333;DHT22;3199;49.102;8.856;2023-11-21T08:54:28;10.00;99.90
6333;DHT22;3199;49.102;8.856;2023-11-21T08:56:54;10.00;99.90
6333;DHT22;3199;49.102;8.856;2023-11-21T08:59:20;10.00;99.90
6333;DHT22;3199;49.102;8.856;2023-11-21T09:01:46;10.00;99.90
6333;DHT22;3199;49.102;8.856;2023-11-21T09:04:12;10.00;99.90
6333;DHT22;3199;49.102;8.856;2023-11-21T09:06:38;10.00;99.90
6333;DHT22;3199;49.102;8.856;2023-11-21T09:09:05;10.10;99.90
6333;DHT22;3199;49.102;8.856;2023-11-21T09:11:31;10.10;99.90
6333;DHT22;3199;49.102;8.856;2023-11-21T09:13:59;10.10;99.90
6333;DHT22;3199;49.102;8.856;2023-11-21T09:16:25;10.00;99.90
6333;DHT22;3199;49.102;8.856;2023-11-21T09:18:51;10.00;99.90
6333;DHT22;3199;49.102;8.856;2023-11-21T09:21:16;10.00;99.90
6333;DHT22;3199;49.102;8.856;2023-11-21T09:23:46;10.10;99.90
6333;DHT22;3199;49.102;8.856;2023-11-21T09:26:12;10.10;99.90
6333;DHT22;3199;49.102;8.856;2023-11-21T09:28:37;10.20;99.90
6333;DHT22;3199;49.102;8.856;2023-11-21T09:31:04;10.30;99.90
6333;DHT22;3199;49.102;8.856;2023-11-21T09:33:30;10.50;99.90
6333;DHT22;3199;49.102;8.856;2023-11-21T09:35:56;10.60;99.90
6333;DHT22;3199;49.102;8.856;2023-11-21T09:38:22;10.80;99.90
6333;DHT22;3199;49.102;8.856;2023-11-21T09:40:47;10.90;99.90
6333;DHT22;3199;49.102;8.856;2023-11-21T09:43:16;11.00;99.90
6333;DHT22;3199;49.102;8.856;2023-11-21T09:45:48;11.00;99.90
6333;DHT22;3199;49.102;8.856;2023-11-21T09:48:16;11.00;99.90
6333;DHT22;3199;49.102;8.856;2023-11-21T09:50:43;11.00;99.90
6333;DHT22;3199;49.102;8.856;2023-11-21T09:53:19;11.00;99.90
6333;DHT22;3199;49.102;8.856;2023-11-21T09:55:52;11.00;99.90
6333;DHT22;3199;49.102;8.856;2023-11-21T09:58:18;11.00;99.90
6333;DHT22;3199;49.102;8.856;2023-11-21T10:00:48;11.00;99.90
6333;DHT22;3199;49.102;8.856;2023-11-21T10:03:15;11.00;99.90
6333;DHT22;3199;49.102;8.856;2023-11-21T10:05:42;11.00;99.90
6333;DHT22;3199;49.102;8.856;2023-11-21T10:08:09;11.00;99.90
6333;DHT22;3199;49.102;8.856;2023-11-21T10:10:36;11.00;99.90
6333;DHT22;3199;49.102;8.856;2023-11-21T10:13:04;11.00;99.90
6333;DHT22;3199;49.102;8.856;2023-11-21T10:15:33;11.10;99.90
6333;DHT22;3199;49.102;8.856;2023-11-21T10:18:05;11.10;99.90
6333;DHT22;3199;49.102;8.856;2023-11-21T10:20:33;11.20;99.90
6333;DHT22;3199;49.102;8.856;2023-11-21T10:23:00;11.20;99.90
6333;DHT22;3199;49.102;8.856;2023-11-21T10:25:29;11.20;99.90
6333;DHT22;3199;49.102;8.856;2023-11-21T10:27:59;11.30;99.90
6333;DHT22;3199;49.102;8.856;2023-11-21T10:30:34;11.30;99.90
6333;DHT22;3199;49.102;8.856;2023-11-21T10:33:03;11.40;99.90
6333;DHT22;3199;49.102;8.856;2023-11-21T10:35:47;11.40;99.90
6333;DHT22;3199;49.102;8.856;2023-11-21T10:38:19;11.40;99.90
6333;DHT22;3199;49.102;8.856;2023-11-21T10:40:54;11.50;99.90
6333;DHT22;3199;49.102;8.856;2023-11-21T10:43:25;11.50;99.90
6333;DHT22;3199;49.102;8.856;2023-11-21T10:45:50;11.50;99.90
6333;DHT22;3199;49.102;8.856;2023-11-21T10:48:16;11.50;99.90
6333;DHT22;3199;49.102;8.856;2023-11-21T10:50:43;11.50;99.90
6333;DHT22;3199;49.102;8.856;2023-11-21T10:53:09;11.40;99.90
6333;DHT22;3199;49.102;8.856;2023-11-21T10:55:37;11.40;99.90
6333;DHT22;3199;49.102;8.856;2023-11-21T10:58:03;11.40;99.90
6333;DHT22;3199;49.102;8.856;2023-11-21T11:00:31;11.30;99.90
6333;DHT22;3199;49.102;8.856;2023-11-21T11:02:57;11.40;99.90
6333;DHT22;3199;49.102;8.856;2023-11-21T11:05:25;11.40;99.90
6333;DHT22;3199;49.102;8.856;2023-11-21T11:07:59;11.50;99.90
6333;DHT22;3199;49.102;8.856;2023-11-21T11:10:27;11.50;99.90
6333;DHT22;3199;49.102;8.856;2023-11-21T11:12:54;11.60;99.90
6333;DHT22;3199;49.102;8.856;2023-11-21T11:15:21;11.70;99.90
6333;DHT22;3199;49.102;8.856;2023-11-21T11:17:48;11.80;99.90
6333;DHT22;3199;49.102;8.856;2023-11-21T11:20:15;11.80;99.90
6333;DHT22;3199;49.102;8.856;2023-11-21T11:28:12;11.90;99.90
6333;DHT22;3199;49.102;8.856;2023-11-21T11:30:50;11.90;99.90
6333;DHT22;3199;49.102;8.856;2023-11-21T11:36:22;11.90;99.90
6333;DHT22;3199;49.102;8.856;2023-11-21T11:38:51;11.80;99.90
6333;DHT22;3199;49.102;8.856;2023-11-21T11:41:27;11.60;99.90
6333;DHT22;3199;49.102;8.856;2023-11-21T11:43:55;11.50;99.90
6333;DHT22;3199;49.102;8.856;2023-11-21T11:46:20;11.30;99.90
6333;DHT22;3199;49.102;8.856;2023-11-21T11:49:02;11.10;99.90
6333;DHT22;3199;49.102;8.856;2023-11-21T11:51:28;11.00;99.90
6333;DHT22;3199;49.102;8.856;2023-11-21T11:53:54;11.00;99.90
6333;DHT22;3199;49.102;8.856;2023-11-21T11:56:28;10.90;99.90
6333;DHT22;3199;49.102;8.856;2023-11-21T11:58:56;10.90;99.90
6333;DHT22;3199;49.102;8.856;2023-11-21T12:01:24;10.80;99.90
6333;DHT22;3199;49.102;8.856;2023-11-21T12:06:51;10.80;99.90
6333;DHT22;3199;49.102;8.856;2023-11-21T12:09:24;10.80;99.90
6333;DHT22;3199;49.102;8.856;2023-11-21T12:11:50;10.80;99.90
6333;DHT22;3199;49.102;8.856;2023-11-21T12:14:16;10.80;99.90
6333;DHT22;3199;49.102;8.856;2023-11-21T12:16:43;10.80;99.90
6333;DHT22;3199;49.102;8.856;2023-11-21T12:19:09;10.80;99.90
6333;DHT22;3199;49.102;8.856;2023-11-21T12:21:36;10.80;99.90
6333;DHT22;3199;49.102;8.856;2023-11-21T12:24:02;10.80;99.90
6333;DHT22;3199;49.102;8.856;2023-11-21T12:26:28;10.80;99.90
6333;DHT22;3199;49.102;8.856;2023-11-21T12:28:54;10.80;99.90
6333;DHT22;3199;49.102;8.856;2023-11-21T12:31:23;10.80;99.90
6333;DHT22;3199;49.102;8.856;2023-11-21T12:33:48;10.80;99.90
6333;DHT22;3199;49.102;8.856;2023-11-21T12:36:15;10.90;99.90
6333;DHT22;3199;49.102;8.856;2023-11-21T12:38:41;10.90;99.90
6333;DHT22;3199;49.102;8.856;2023-11-21T12:41:07;10.90;99.90
6333;DHT22;3199;49.102;8.856;2023-11-21T12:43:33;11.00;99.90
6333;DHT22;3199;49.102;8.856;2023-11-21T12:46:13;11.00;99.90
6333;DHT22;3199;49.102;8.856;2023-11-21T12:48:39;11.00;99.90
6333;DHT22;3199;49.102;8.856;2023-11-21T12:51:08;11.10;99.90
6333;DHT22;3199;49.102;8.856;2023-11-21T12:53:35;11.20;99.90
6333;DHT22;3199;49.102;8.856;2023-11-21T12:56:10;11.20;99.90
6333;DHT22;3199;49.102;8.856;2023-11-21T12:58:37;11.30;99.90
6333;DHT22;3199;49.102;8.856;2023-11-21T13:01:05;11.30;99.90
6333;DHT22;3199;49.102;8.856;2023-11-21T13:03:31;11.30;99.90
6333;DHT22;3199;49.102;8.856;2023-11-21T13:05:58;11.30;99.90
6333;DHT22;3199;49.102;8.856;2023-11-21T13:08:25;11.30;99.90
6333;DHT22;3199;49.102;8.856;2023-11-21T13:10:53;11.30;99.90
6333;DHT22;3199;49.102;8.856;2023-11-21T13:13:20;11.20;99.90
6333;DHT22;3199;49.102;8.856;2023-11-21T13:16:15;11.10;99.90
6333;DHT22;3199;49.102;8.856;2023-11-21T13:18:41;11.10;99.90
6333;DHT22;3199;49.102;8.856;2023-11-21T13:21:09;11.10;99.90
6333;DHT22;3199;49.102;8.856;2023-11-21T13:23:38;11.10;99.90
6333;DHT22;3199;49.102;8.856;2023-11-21T13:26:04;11.10;99.90
6333;DHT22;3199;49.102;8.856;2023-11-21T13:28:31;11.10;99.90
6333;DHT22;3199;49.102;8.856;2023-11-21T13:31:01;11.10;99.90
6333;DHT22;3199;49.102;8.856;2023-11-21T13:33:35;11.10;99.90
6333;DHT22;3199;49.102;8.856;2023-11-21T13:36:06;11.20;99.90
6333;DHT22;3199;49.102;8.856;2023-11-21T13:38:35;11.20;99.90
6333;DHT22;3199;49.102;8.856;2023-11-21T13:41:02;11.20;99.90
6333;DHT22;3199;49.102;8.856;2023-11-21T13:43:32;11.20;99.90
6333;DHT22;3199;49.102;8.856;2023-11-21T13:45:59;11.10;99.90
6333;DHT22;3199;49.102;8.856;2023-11-21T13:48:28;11.20;99.90
6333;DHT22;3199;49.102;8.856;2023-11-21T13:50:57;11.20;99.90
6333;DHT22;3199;49.102;8.856;2023-11-21T13:53:26;11.20;99.90
6333;DHT22;3199;49.102;8.856;2023-11-21T13:55:55;11.20;99.90
6333;DHT22;3199;49.102;8.856;2023-11-21T13:58:23;11.20;99.90
6333;DHT22;3199;49.102;8.856;2023-11-21T14:01:08;11.30;99.90
6333;DHT22;3199;49.102;8.856;2023-11-21T14:03:50;11.30;99.90
6333;DHT22;3199;49.102;8.856;2023-11-21T14:06:17;11.30;99.90
6333;DHT22;3199;49.102;8.856;2023-11-21T14:08:50;11.30;99.90
6333;DHT22;3199;49.102;8.856;2023-11-21T14:11:15;11.20;99.90
6333;DHT22;3199;49.102;8.856;2023-11-21T14:13:43;11.20;99.90
6333;DHT22;3199;49.102;8.856;2023-11-21T14:16:13;11.20;99.90
6333;DHT22;3199;49.102;8.856;2023-11-21T14:18:39;11.20;99.90
6333;DHT22;3199;49.102;8.856;2023-11-21T14:21:18;11.10;99.90
6333;DHT22;3199;49.102;8.856;2023-11-21T14:23:43;11.10;99.90
6333;DHT22;3199;49.102;8.856;2023-11-21T14:26:11;11.10;99.90
6333;DHT22;3199;49.102;8.856;2023-11-21T14:28:40;11.00;99.90
6333;DHT22;3199;49.102;8.856;2023-11-21T14:31:07;11.00;99.90
6333;DHT22;3199;49.102;8.856;2023-11-21T14:33:33;10.90;99.90
6333;DHT22;3199;49.102;8.856;2023-11-21T14:35:58;10.90;99.90
6333;DHT22;3199;49.102;8.856;2023-11-21T14:38:24;10.90;99.90
6333;DHT22;3199;49.102;8.856;2023-11-21T14:40:50;10.80;99.90
6333;DHT22;3199;49.102;8.856;2023-11-21T14:43:15;10.80;99.90
6333;DHT22;3199;49.102;8.856;2023-11-21T14:45:42;10.70;99.90
6333;DHT22;3199;49.102;8.856;2023-11-21T14:48:07;10.70;99.90
6333;DHT22;3199;49.102;8.856;2023-11-21T14:50:40;10.70;99.90
6333;DHT22;3199;49.102;8.856;2023-11-21T14:53:28;10.70;99.90
6333;DHT22;3199;49.102;8.856;2023-11-21T14:56:09;10.70;99.90
6333;DHT22;3199;49.102;8.856;2023-11-21T14:58:35;10.60;99.90
6333;DHT22;3199;49.102;8.856;2023-11-21T15:01:02;10.60;99.90
6333;DHT22;3199;49.102;8.856;2023-11-21T15:03:29;10.60;99.90
6333;DHT22;3199;49.102;8.856;2023-11-21T15:06:01;10.60;99.90
6333;DHT22;3199;49.102;8.856;2023-11-21T15:08:44;10.50;99.90
6333;DHT22;3199;49.102;8.856;2023-11-21T15:11:11;10.50;99.90
6333;DHT22;3199;49.102;8.856;2023-11-21T15:13:40;10.40;99.90
6333;DHT22;3199;49.102;8.856;2023-11-21T15:16:08;10.40;99.90
6333;DHT22;3199;49.102;8.856;2023-11-21T15:18:36;10.40;99.90
6333;DHT22;3199;49.102;8.856;2023-11-21T15:21:02;10.40;99.90
6333;DHT22;3199;49.102;8.856;2023-11-21T15:23:29;10.40;99.90
6333;DHT22;3199;49.102;8.856;2023-11-21T15:25:56;10.30;99.90
6333;DHT22;3199;49.102;8.856;2023-11-21T15:28:23;10.30;99.90
6333;DHT22;3199;49.102;8.856;2023-11-21T15:30:49;10.30;99.90
6333;DHT22;3199;49.102;8.856;2023-11-21T15:33:16;10.20;99.90
6333;DHT22;3199;49.102;8.856;2023-11-21T15:35:42;10.20;99.90
6333;DHT22;3199;49.102;8.856;2023-11-21T15:38:09;10.20;99.90
6333;DHT22;3199;49.102;8.856;2023-11-21T15:40:34;10.20;99.90
6333;DHT22;3199;49.102;8.856;2023-11-21T15:43:00;10.10;99.90
6333;DHT22;3199;49.102;8.856;2023-11-21T15:45:28;10.10;99.90
6333;DHT22;3199;49.102;8.856;2023-11-21T15:47:53;10.10;99.90
6333;DHT22;3199;49.102;8.856;2023-11-21T15:50:19;10.10;99.90
6333;DHT22;3199;49.102;8.856;2023-11-21T15:52:45;10.10;99.90
6333;DHT22;3199;49.102;8.856;2023-11-21T15:55:11;10.10;99.90
6333;DHT22;3199;49.102;8.856;2023-11-21T15:57:37;10.00;99.90
6333;DHT22;3199;49.102;8.856;2023-11-21T16:00:02;10.00;99.90
6333;DHT22;3199;49.102;8.856;2023-11-21T16:02:34;10.00;99.90
6333;DHT22;3199;49.102;8.856;2023-11-21T16:04:59;10.00;99.90
6333;DHT22;3199;49.102;8.856;2023-11-21T16:07:25;9.90;99.90
6333;DHT22;3199;49.102;8.856;2023-11-21T16:09:50;9.90;99.90
6333;DHT22;3199;49.102;8.856;2023-11-21T16:12:16;9.90;99.90
6333;DHT22;3199;49.102;8.856;2023-11-21T16:14:41;9.80;99.90
6333;DHT22;3199;49.102;8.856;2023-11-21T16:17:10;9.80;99.90
6333;DHT22;3199;49.102;8.856;2023-11-21T16:19:38;9.80;99.90
6333;DHT22;3199;49.102;8.856;2023-11-21T16:22:04;9.80;99.90